Terminal Aerodrome Forecast
Issued by NWS Pocatello, ID

Home | Current Version | Previous Version | Text Only | Print | Product List | Glossary On
Versions: 1 2 3 4 5 6 7 8 9 10 11 12 13 14 15 16 17 18 19 20 21
000
FTUS45 KPIH 011100
TAFIDA
TAF
KIDA 011120Z 0112/0212 VRB05KT P6SM SCT040 OVC100
     FM011700 24012G20KT P6SM SCT070 BKN100
     FM020100 22008KT P6SM SCT100=

USA.gov is the U.S. government's official web portal to all federal, state and local government web resources and services.